Time;durP1;ratioP1;P1;durP2;ratioP2;P2;SDS_P1;SDS_P2;PMS_P1;PMS_P2;Temp;Humidity;BMP_temperature;BMP_pressure;BME280_temperature;BME280_humidity;BME280_pressure;Samples;Min_cycle;Max_cycle;Signal;HPM_P1;HPM_P2
2023/10/13 00:01:23;;;;;;;15.93;7.00;;;13.90;93.40;;;14.05;58.80;95445.00;5001826;28;20548;-63
2023/10/13 00:03:52;;;;;;;16.97;6.93;;;13.80;94.00;;;14.05;58.96;95443.22;5003456;28;20507;-63
2023/10/13 00:06:19;;;;;;;6.90;5.90;;;13.80;93.60;;;14.04;58.68;95438.06;5001850;28;20466;-64
2023/10/13 00:08:47;;;;;;;13.20;6.23;;;13.80;93.60;;;14.02;58.98;95440.84;5004343;28;20494;-63
2023/10/13 00:11:14;;;;;;;29.70;7.07;;;13.80;93.60;;;14.00;59.19;95448.09;5003395;28;20550;-63
2023/10/13 00:13:50;;;;;;;9.30;6.70;;;13.80;93.90;;;13.97;59.14;95443.94;5001539;28;20462;-63
2023/10/13 00:16:21;;;;;;;10.80;6.30;;;13.70;93.90;;;13.95;59.23;95437.13;5002232;28;20469;-63
2023/10/13 00:18:48;;;;;;;17.67;7.80;;;13.70;94.10;;;13.92;59.27;95448.81;5003368;28;20478;-63
2023/10/13 00:21:20;;;;;;;10.33;6.83;;;13.70;94.00;;;13.89;59.57;95446.47;5002066;28;20474;-63
2023/10/13 00:23:53;;;;;;;15.93;6.17;;;13.70;94.60;;;13.85;59.72;95445.13;5002685;28;20435;-64
2023/10/13 00:26:24;;;;;;;13.23;7.60;;;13.70;94.50;;;13.83;59.94;95440.94;5000693;28;20478;-64
2023/10/13 00:28:58;;;;;;;9.27;6.23;;;13.60;94.50;;;13.80;60.17;95442.06;5003974;28;20456;-62
2023/10/13 00:31:33;;;;;;;19.00;6.70;;;13.60;94.70;;;13.78;60.20;95444.00;5000599;28;20470;-64
2023/10/13 00:34:09;;;;;;;8.70;7.13;;;13.60;94.80;;;13.75;60.09;95439.03;5002487;28;20472;-61
2023/10/13 00:36:36;;;;;;;12.67;6.47;;;13.50;94.80;;;13.71;59.86;95457.00;5002117;28;20512;-62
2023/10/13 00:39:06;;;;;;;12.93;6.97;;;13.50;94.80;;;13.68;59.88;95452.00;5001199;28;20516;-61
2023/10/13 00:41:50;;;;;;;12.53;7.10;;;13.50;94.90;;;13.66;60.38;95453.09;5002169;28;20576;-61
2023/10/13 00:44:17;;;;;;;11.80;7.37;;;13.40;95.00;;;13.62;60.08;95453.41;5000175;28;20546;-61
2023/10/13 00:46:45;;;;;;;10.50;6.53;;;13.40;95.10;;;13.58;60.27;95445.91;5003115;28;20474;-62
2023/10/13 00:49:15;;;;;;;12.17;7.20;;;13.40;95.00;;;13.55;59.86;95447.00;4999831;28;20458;-62
2023/10/13 00:51:46;;;;;;;15.23;6.70;;;13.30;94.80;;;13.55;60.13;95449.66;5002989;28;20461;-63
2023/10/13 00:54:16;;;;;;;14.83;7.97;;;13.30;94.80;;;13.52;60.28;95443.81;5000716;28;20904;-64
2023/10/13 00:56:46;;;;;;;15.90;7.53;;;13.30;94.90;;;13.46;60.18;95442.59;5002243;28;20484;-61
2023/10/13 00:59:14;;;;;;;12.03;6.63;;;13.30;94.90;;;13.46;60.31;95445.22;5001017;28;20478;-61
2023/10/13 01:01:42;;;;;;;20.33;7.63;;;13.30;95.00;;;13.43;60.29;95448.16;5002247;28;20868;-61
2023/10/13 01:04:12;;;;;;;12.53;7.43;;;13.20;95.00;;;13.41;60.80;95452.75;5001003;28;20873;-61
2023/10/13 01:06:38;;;;;;;15.17;7.30;;;13.20;95.30;;;13.39;60.21;95452.06;5002524;28;20524;-62
2023/10/13 01:09:16;;;;;;;17.53;6.70;;;13.20;95.30;;;13.38;60.50;95445.94;5000622;28;20525;-63
2023/10/13 01:11:44;;;;;;;11.03;7.20;;;13.20;95.40;;;13.38;60.73;95453.03;4999662;28;20592;-63
2023/10/13 01:14:12;;;;;;;16.63;7.07;;;13.10;95.60;;;13.37;60.77;95456.66;5001493;28;20451;-64
2023/10/13 01:16:43;;;;;;;25.30;6.93;;;13.20;95.60;;;13.35;61.15;95448.03;5000318;28;20648;-63
2023/10/13 01:19:18;;;;;;;10.53;6.50;;;13.10;95.70;;;13.34;60.98;95454.28;5001803;28;20535;-64
2023/10/13 01:21:44;;;;;;;10.50;6.63;;;13.10;95.80;;;13.31;61.08;95446.63;4999536;28;20568;-64
2023/10/13 01:24:23;;;;;;;10.10;7.20;;;13.10;96.00;;;13.30;61.12;95450.25;5002485;28;20536;-63
2023/10/13 01:26:51;;;;;;;12.50;6.20;;;13.00;95.90;;;13.27;61.34;95454.00;5001571;28;20485;-61
2023/10/13 01:29:19;;;;;;;19.50;7.57;;;13.00;95.90;;;13.26;61.28;95452.31;5000287;28;20447;-63
2023/10/13 01:31:46;;;;;;;18.27;7.67;;;13.00;95.90;;;13.24;61.58;95460.41;5001818;28;20866;-63
2023/10/13 01:34:19;;;;;;;12.57;6.20;;;13.00;96.20;;;13.22;61.34;95454.44;4999902;28;20443;-64
2023/10/13 01:36:46;;;;;;;9.47;5.80;;;13.00;96.10;;;13.20;61.44;95459.03;5001540;28;21053;-63
2023/10/13 01:39:16;;;;;;;12.03;5.83;;;13.00;96.20;;;13.17;61.65;95456.66;5000148;28;20517;-62
2023/10/13 01:41:44;;;;;;;14.00;7.40;;;13.00;96.20;;;13.15;61.62;95461.28;5000763;28;20469;-61
2023/10/13 01:44:12;;;;;;;10.00;6.60;;;12.90;96.30;;;13.13;61.50;95465.84;5000048;28;20574;-63
2023/10/13 01:46:38;;;;;;;10.27;6.60;;;12.90;96.40;;;13.11;61.74;95457.25;5001193;28;20642;-62
2023/10/13 01:49:07;;;;;;;17.57;6.43;;;12.90;96.40;;;13.08;61.60;95457.50;4999849;28;20450;-65
2023/10/13 01:51:33;;;;;;;8.57;6.43;;;12.90;96.40;;;13.08;61.44;95455.69;5000982;28;20477;-62
2023/10/13 01:54:03;;;;;;;11.37;7.10;;;12.90;96.20;;;13.05;61.45;95452.50;4999147;28;20457;-61
2023/10/13 01:56:31;;;;;;;19.80;7.20;;;12.80;96.20;;;13.06;61.30;95455.00;5001236;28;20489;-63
2023/10/13 01:58:58;;;;;;;16.30;6.77;;;12.90;96.00;;;13.05;61.26;95452.50;4999068;28;21061;-60
2023/10/13 02:01:27;;;;;;;13.87;7.67;;;12.80;95.80;;;13.03;61.57;95450.00;5001233;28;20473;-61
2023/10/13 02:04:01;;;;;;;15.80;7.00;;;12.80;96.20;;;13.03;61.59;95449.19;4999425;28;20548;-63
2023/10/13 02:06:32;;;;;;;15.50;6.70;;;12.80;96.40;;;13.00;61.42;95452.13;5000936;28;20476;-61
2023/10/13 02:09:10;;;;;;;14.93;6.60;;;12.80;96.30;;;12.98;61.42;95454.03;5000426;28;20465;-63
2023/10/13 02:11:39;;;;;;;12.27;5.37;;;12.80;96.30;;;12.96;61.56;95446.25;4998540;28;20505;-64
2023/10/13 02:14:06;;;;;;;13.67;7.07;;;12.80;96.40;;;12.95;61.56;95449.03;5001928;28;20458;-63
2023/10/13 02:16:32;;;;;;;13.33;7.60;;;12.80;96.30;;;12.94;61.69;95445.56;4999399;28;20882;-60
2023/10/13 02:19:03;;;;;;;9.90;6.33;;;12.80;96.50;;;12.92;61.60;95444.88;5001223;28;20493;-64
2023/10/13 02:21:38;;;;;;;14.93;6.63;;;12.70;96.50;;;12.91;61.60;95451.13;4998322;28;20463;-63
2023/10/13 02:24:12;;;;;;;10.77;7.37;;;12.70;96.60;;;12.90;61.92;95449.47;4998246;28;20449;-64
2023/10/13 02:26:40;;;;;;;14.87;5.73;;;12.70;96.70;;;12.88;62.02;95444.31;5000520;28;20572;-61
2023/10/13 02:29:08;;;;;;;21.37;6.60;;;12.70;96.70;;;12.86;61.93;95443.63;4999060;28;20443;-62
2023/10/13 02:31:35;;;;;;;16.67;7.23;;;12.70;96.70;;;12.84;61.98;95442.09;5000587;28;21002;-63
2023/10/13 02:34:06;;;;;;;13.93;7.53;;;12.70;96.70;;;12.83;61.85;95441.28;4998622;28;20533;-62
2023/10/13 02:36:36;;;;;;;14.17;7.20;;;12.60;96.70;;;12.82;62.09;95450.16;5000720;28;20493;-61
2023/10/13 02:39:07;;;;;;;9.83;5.83;;;12.60;96.80;;;12.82;62.00;95460.72;4999632;28;20494;-61
2023/10/13 02:41:36;;;;;;;13.17;6.97;;;12.60;96.80;;;12.83;62.00;95466.84;5000062;28;20548;-60
2023/10/13 02:44:07;;;;;;;11.20;7.13;;;12.60;96.90;;;12.81;62.30;95464.34;4999810;28;20454;-65
2023/10/13 02:46:36;;;;;;;6.23;5.63;;;12.60;97.00;;;12.79;62.34;95458.34;4999505;28;20553;-63
2023/10/13 02:49:10;;;;;;;15.40;7.60;;;12.60;97.10;;;12.78;62.37;95461.97;5000314;28;20450;-63
2023/10/13 02:51:37;;;;;;;9.33;6.60;;;12.60;97.20;;;12.76;61.98;95463.91;4998447;28;20990;-64
2023/10/13 02:54:10;;;;;;;23.83;6.27;;;12.60;97.10;;;12.72;62.46;95460.72;4997939;28;20455;-62
2023/10/13 02:56:37;;;;;;;10.20;6.57;;;12.60;97.30;;;12.70;62.14;95461.81;5001711;28;20500;-62
2023/10/13 02:59:05;;;;;;;12.77;6.50;;;12.50;97.30;;;12.68;62.89;95459.31;4997792;28;20588;-62
2023/10/13 03:01:33;;;;;;;7.80;6.07;;;12.50;97.50;;;12.66;62.36;95457.81;5001170;28;20545;-62
2023/10/13 03:04:00;;;;;;;14.90;7.23;;;12.50;97.30;;;12.63;62.86;95460.72;4997371;28;20542;-62
2023/10/13 03:06:33;;;;;;;15.30;6.30;;;12.50;97.50;;;12.61;62.56;95465.28;5001235;28;20470;-63
2023/10/13 03:09:13;;;;;;;8.67;6.73;;;12.40;97.30;;;12.59;62.74;95473.34;4996984;28;20533;-62
2023/10/13 03:11:42;;;;;;;13.57;7.27;;;12.40;97.40;;;12.58;63.23;95476.13;4998727;28;20489;-64
2023/10/13 03:14:23;;;;;;;8.53;6.17;;;12.40;97.60;;;12.57;63.36;95467.38;5000118;28;20485;-64
2023/10/13 03:16:52;;;;;;;10.00;7.67;;;12.40;97.80;;;12.55;62.92;95478.06;5000871;28;20476;-65
2023/10/13 03:19:19;;;;;;;16.40;7.03;;;12.40;97.70;;;12.54;62.67;95472.94;4998036;28;20541;-63
2023/10/13 03:21:54;;;;;;;21.27;8.63;;;12.40;97.80;;;12.54;62.83;95471.13;5000623;28;21067;-63
2023/10/13 03:24:23;;;;;;;11.53;6.97;;;12.40;97.70;;;12.53;62.93;95469.47;4997826;28;20442;-64
2023/10/13 03:26:52;;;;;;;22.30;8.90;;;12.30;97.60;;;12.53;62.74;95468.59;5000894;28;20540;-64
2023/10/13 03:29:22;;;;;;;11.30;7.93;;;12.30;97.60;;;12.53;62.59;95474.75;4997964;28;20465;-63
2023/10/13 03:32:06;;;;;;;17.13;8.43;;;12.30;97.60;;;12.53;62.90;95469.47;5000462;28;20902;-66
2023/10/13 03:34:34;;;;;;;18.30;8.70;;;12.30;97.60;;;12.53;62.85;95461.56;5000511;28;20441;-62
2023/10/13 03:37:11;;;;;;;22.10;12.00;;;12.40;97.70;;;12.52;62.76;95456.41;5005649;28;20497;-65
2023/10/13 03:39:44;;;;;;;11.93;6.60;;;12.30;97.50;;;12.48;62.79;95461.09;5002752;28;20492;-62
2023/10/13 03:42:18;;;;;;;17.50;7.83;;;12.30;97.60;;;12.46;62.81;95447.22;5001080;28;20487;-62
2023/10/13 03:44:48;;;;;;;19.27;7.10;;;12.30;97.60;;;12.46;63.12;95449.03;5003735;28;20442;-65
2023/10/13 03:47:26;;;;;;;15.33;6.83;;;12.30;97.70;;;12.45;63.04;95444.72;5003260;28;20473;-63
2023/10/13 03:50:14;;;;;;;14.23;7.97;;;12.30;97.80;;;12.44;63.03;95438.63;5003703;28;20537;-63
2023/10/13 03:52:42;;;;;;;16.13;7.10;;;12.20;97.70;;;12.43;62.96;95431.66;5002410;28;20489;-64
2023/10/13 03:55:17;;;;;;;16.63;7.37;;;12.20;97.70;;;12.42;62.88;95440.53;5004451;28;20453;-65
2023/10/13 03:57:50;;;;;;;11.97;7.50;;;12.20;97.60;;;12.41;62.76;95436.25;5002988;28;20512;-64
2023/10/13 04:00:24;;;;;;;31.37;9.20;;;12.20;97.70;;;12.40;63.12;95442.50;5001495;28;21022;-63
2023/10/13 04:03:06;;;;;;;21.03;8.50;;;12.20;97.80;;;12.39;63.18;95446.09;5004741;28;20461;-64
2023/10/13 04:05:39;;;;;;;13.20;7.47;;;12.20;97.90;;;12.36;63.06;95441.94;5002342;28;20455;-63
2023/10/13 04:14:21;;;;;;;21.33;7.47;;;12.10;97.80;;;12.30;63.22;95439.00;5002775;28;21017;-65
2023/10/13 04:16:50;;;;;;;20.70;7.30;;;12.10;97.80;;;12.28;63.15;95449.69;5003298;28;20484;-64
2023/10/13 04:19:22;;;;;;;12.23;7.63;;;12.10;98.00;;;12.28;63.63;95443.59;5002428;28;20465;-61
2023/10/13 04:21:58;;;;;;;26.53;10.53;;;12.10;98.10;;;12.28;63.29;95452.31;5001552;28;20501;-62
2023/10/13 04:25:00;;;;;;;15.80;7.73;;;12.10;98.00;;;12.30;63.17;95452.19;5000414;28;20454;-64
2023/10/13 04:27:53;;;;;;;10.10;7.03;;;12.10;98.00;;;12.32;63.15;95461.66;5007257;28;20942;-62
2023/10/13 04:30:27;;;;;;;26.90;9.13;;;12.10;98.10;;;12.35;63.09;95471.09;5002354;28;20455;-62
2023/10/13 04:35:47;;;;;;;40.47;10.53;;;12.20;98.10;;;12.40;63.11;95465.41;5003661;28;20526;-64
2023/10/13 04:38:19;;;;;;;21.80;9.70;;;12.20;97.90;;;12.39;63.19;95469.84;5000293;28;20552;-62
2023/10/13 04:41:01;;;;;;;22.30;9.03;;;12.20;98.00;;;12.37;62.86;95479.69;5004540;28;20485;-62
2023/10/13 04:43:54;;;;;;;33.27;9.40;;;12.20;97.80;;;12.32;62.77;95479.28;4999487;28;20461;-63
2023/10/13 04:46:35;;;;;;;18.70;9.70;;;12.10;97.60;;;12.29;62.96;95484.81;5006529;28;20461;-63
2023/10/13 04:49:09;;;;;;;22.87;9.37;;;12.10;97.70;;;12.26;62.87;95478.00;5004266;28;20447;-63
2023/10/13 04:54:33;;;;;;;20.87;9.47;;;12.00;97.80;;;12.20;63.00;95487.28;5004369;28;20438;-62
2023/10/13 04:57:23;;;;;;;21.83;9.50;;;12.00;97.90;;;12.19;63.44;95492.69;4998852;28;20482;-62
2023/10/13 05:02:54;;;;;;;21.37;9.03;;;12.00;98.00;;;12.19;63.08;95493.56;5000713;28;21660;-61
2023/10/13 05:47:01;;;;;;;21.10;7.00;;;12.50;97.50;;;12.88;62.55;95542.00;4998223;28;20469;-64
2023/10/13 05:49:49;;;;;;;27.77;8.50;;;12.70;97.60;;;13.15;61.75;95537.88;5001147;28;20450;-61
2023/10/13 06:28:40;;;;;;;14.00;7.70;;;12.90;97.60;;;13.49;61.58;95531.31;5000095;28;20911;-63
2023/10/13 06:31:01;;;;;;;15.43;8.10;;;17.80;88.90;;;18.89;51.78;95554.03;4998848;28;20457;-64
2023/10/13 06:33:29;;;;;;;21.20;8.03;;;18.30;87.60;;;19.33;50.58;95553.47;5000512;28;20970;-63
2023/10/13 06:35:58;;;;;;;23.83;8.27;;;18.70;85.90;;;19.78;50.27;95564.28;4998776;28;20562;-63
2023/10/13 06:38:30;;;;;;;15.30;7.60;;;19.20;84.50;;;20.24;49.33;95561.53;5000454;28;20832;-61
2023/10/13 06:40:58;;;;;;;19.50;7.93;;;19.60;82.90;;;20.71;48.27;95564.91;4997646;28;20498;-63
2023/10/13 06:43:32;;;;;;;13.13;7.83;;;20.10;79.90;;;21.11;47.39;95560.00;5000833;28;20556;-60
2023/10/13 06:46:01;;;;;;;17.60;7.70;;;20.50;78.50;;;21.55;47.46;95558.25;4997572;28;20482;-64
2023/10/13 06:48:32;;;;;;;14.00;9.33;;;20.90;78.10;;;22.02;46.88;95564.81;5000943;28;20481;-62
2023/10/13 06:51:04;;;;;;;12.07;8.10;;;21.30;76.90;;;22.53;46.68;95562.94;4998588;28;20521;-62
2023/10/13 06:53:36;;;;;;;10.40;8.07;;;21.80;75.70;;;23.05;45.44;95555.34;4999756;28;20833;-61
2023/10/13 06:56:07;;;;;;;14.20;9.03;;;22.30;74.60;;;23.55;45.03;95549.72;4998983;28;20466;-62
2023/10/13 06:58:36;;;;;;;16.23;9.50;;;22.80;72.30;;;24.04;44.17;95547.72;4999328;28;20945;-64
2023/10/13 07:01:14;;;;;;;26.10;8.30;;;23.30;71.60;;;24.52;43.48;95536.69;4999120;28;20497;-65
2023/10/13 07:03:42;;;;;;;21.03;8.57;;;23.80;70.00;;;24.98;41.93;95535.72;4997935;28;20465;-63
2023/10/13 07:06:11;;;;;;;28.80;9.00;;;24.30;66.90;;;25.33;41.81;95539.94;5000540;28;20481;-64
2023/10/13 07:08:39;;;;;;;15.00;10.40;;;24.70;66.80;;;25.77;41.41;95530.13;4998763;28;20486;-65
2023/10/13 07:11:08;;;;;;;21.30;9.93;;;25.10;65.20;;;26.26;40.66;95535.78;5004680;28;21011;-63
2023/10/13 07:13:38;;;;;;;15.00;8.73;;;25.70;64.40;;;26.84;39.81;95546.16;5001629;28;20446;-65
2023/10/13 07:16:12;;;;;;;31.00;10.57;;;26.30;63.10;;;27.40;39.06;95548.00;5005401;28;20538;-61
2023/10/13 07:18:49;;;;;;;20.80;9.93;;;26.90;60.70;;;27.97;38.48;95555.72;5002493;28;20544;-65
2023/10/13 07:21:16;;;;;;;21.07;10.33;;;27.60;59.20;;;28.51;37.88;95550.25;5003556;28;20897;-65
2023/10/13 07:23:52;;;;;;;19.60;10.87;;;28.20;58.00;;;28.97;36.85;95549.38;4998363;28;20458;-61
2023/10/13 07:26:22;;;;;;;19.37;11.20;;;28.60;56.30;;;29.34;36.04;95550.94;5002480;28;20551;-62
2023/10/13 07:28:52;;;;;;;31.27;11.27;;;29.10;55.20;;;29.69;34.54;95548.06;5004537;28;20484;-64
2023/10/13 07:31:20;;;;;;;25.37;11.53;;;29.50;54.40;;;30.02;34.68;95540.25;5001923;28;20485;-65
2023/10/13 07:33:48;;;;;;;21.73;10.60;;;29.90;52.80;;;30.33;34.04;95536.09;5004044;28;20453;-65
2023/10/13 07:36:27;;;;;;;35.27;11.70;;;30.20;52.20;;;30.60;33.04;95534.63;5004559;28;20244;-65
2023/10/13 07:39:20;;;;;;;19.90;11.00;;;30.50;51.20;;;30.84;33.00;95538.75;5001986;28;20199;-65
2023/10/13 07:41:51;;;;;;;16.33;11.40;;;30.90;50.60;;;31.10;32.83;95523.63;5002274;28;20269;-65
2023/10/13 07:44:24;;;;;;;20.60;11.93;;;31.20;49.90;;;31.36;32.14;95531.28;5001869;28;20298;-63
2023/10/13 07:46:59;;;;;;;27.37;12.07;;;31.30;49.00;;;31.48;31.44;95525.66;5003958;28;20296;-61
2023/10/13 07:49:36;;;;;;;47.87;12.80;;;31.40;48.60;;;31.46;31.57;95528.66;5002797;28;20619;-61
2023/10/13 07:52:14;;;;;;;18.40;11.97;;;31.40;48.10;;;31.43;31.68;95526.44;5001572;28;20645;-66
2023/10/13 07:54:47;;;;;;;36.50;12.43;;;31.30;48.00;;;31.38;31.36;95526.38;5001289;28;20294;-63
2023/10/13 07:57:17;;;;;;;20.03;11.90;;;31.20;47.60;;;31.25;31.06;95519.47;5003577;28;20611;-65
2023/10/13 07:59:51;;;;;;;25.23;12.87;;;31.10;47.30;;;31.10;30.73;95523.63;5001743;28;20317;-61
2023/10/13 08:04:59;;;;;;;19.73;12.63;;;30.70;47.30;;;30.80;31.74;95512.34;5004496;28;20210;-65
2023/10/13 08:07:28;;;;;;;23.50;13.37;;;30.60;47.20;;;30.76;31.52;95514.75;5003862;28;20218;-63
2023/10/13 08:09:58;;;;;;;23.50;12.70;;;30.40;47.30;;;30.88;30.86;95520.06;5000657;28;20292;-62
2023/10/13 08:12:27;;;;;;;27.20;12.90;;;30.40;47.40;;;30.98;31.18;95514.78;5003020;28;20230;-61
2023/10/13 08:17:37;;;;;;;35.70;13.20;;;30.50;47.10;;;31.16;30.93;95515.56;5002779;28;20227;-62
2023/10/13 08:20:11;;;;;;;20.30;12.60;;;30.60;46.80;;;31.07;30.72;95515.97;5000792;28;20230;-65
2023/10/13 08:22:39;;;;;;;32.97;14.63;;;30.60;46.50;;;30.94;30.81;95527.22;5001303;28;20722;-62
2023/10/13 08:25:33;;;;;;;29.87;13.47;;;30.50;46.40;;;30.88;30.36;95537.19;5000525;28;20233;-62
2023/10/13 08:28:46;;;;;;;30.30;13.10;;;30.40;46.50;;;30.74;30.65;95528.59;5001266;28;20209;-65
2023/10/13 08:30:56;;;;;;;29.47;14.73;;;30.30;46.70;;;30.60;31.27;95524.59;5000585;28;20230;-67
2023/10/13 08:33:27;;;;;;;27.27;12.70;;;30.20;46.70;;;30.65;31.11;95521.94;5001736;28;20195;-67
2023/10/13 08:36:27;;;;;;;26.67;14.37;;;30.20;46.90;;;30.70;30.86;95510.31;5000571;28;20664;-63
2023/10/13 08:38:56;;;;;;;19.93;13.17;;;30.20;46.90;;;30.69;31.16;95512.22;5000944;28;20261;-61
2023/10/13 08:41:29;;;;;;;21.47;13.40;;;30.20;46.70;;;30.70;31.33;95519.28;5000352;28;20747;-63
2023/10/13 08:44:03;;;;;;;32.77;12.40;;;30.20;46.70;;;30.79;31.22;95513.44;5001302;28;20478;-62
2023/10/13 08:47:03;;;;;;;31.03;14.30;;;30.20;46.50;;;30.88;30.46;95517.38;4998443;28;20305;-65
2023/10/13 08:49:29;;;;;;;30.20;13.23;;;30.30;46.30;;;30.84;30.25;95516.22;5002457;28;20207;-62
2023/10/13 08:52:06;;;;;;;25.97;13.10;;;30.20;46.20;;;30.56;30.61;95518.81;5002254;28;20234;-65
2023/10/13 08:54:33;;;;;;;24.97;13.47;;;30.10;46.20;;;30.29;30.92;95517.88;4999701;28;20222;-62
2023/10/13 08:57:19;;;;;;;23.10;13.13;;;29.90;46.40;;;30.29;31.51;95507.84;5001607;28;20800;-64
2023/10/13 08:59:53;;;;;;;27.67;13.37;;;29.90;46.60;;;30.50;30.80;95500.00;5001290;28;20536;-65
2023/10/13 09:02:59;;;;;;;26.07;12.60;;;30.00;46.80;;;30.92;30.69;95500.31;4998595;28;20580;-61
2023/10/13 09:05:36;;;;;;;23.73;12.13;;;30.30;46.60;;;31.39;30.25;95498.94;5001130;28;20207;-65
2023/10/13 09:08:08;;;;;;;43.30;14.20;;;30.60;46.10;;;31.86;29.91;95502.13;4999080;28;20618;-65
2023/10/13 09:10:44;;;;;;;26.00;12.20;;;31.10;45.80;;;32.32;29.51;95503.34;4956996;28;1222122;-64
2023/10/13 09:13:20;;;;;;;23.63;11.83;;;31.50;45.40;;;32.72;29.13;95503.88;5002069;28;20260;-64
2023/10/13 09:16:02;;;;;;;25.37;11.23;;;31.90;44.60;;;33.08;28.84;95506.75;4999534;28;20230;-63
2023/10/13 09:18:46;;;;;;;27.90;11.60;;;32.30;44.20;;;33.22;28.47;95502.47;5001202;28;20297;-65
2023/10/13 09:21:43;;;;;;;27.45;9.60;;;32.50;43.70;;;33.36;28.30;95491.06;4999956;28;20334;-65
2023/10/13 09:24:27;;;;;;;25.33;11.55;;;32.70;43.50;;;33.65;28.41;95493.28;4998561;28;20216;-65
2023/10/13 09:26:55;;;;;;;18.13;9.30;;;32.90;43.10;;;33.97;27.07;95486.78;5000681;28;20237;-64
2023/10/13 09:29:22;;;;;;;29.05;11.55;;;33.20;42.90;;;34.26;26.83;95487.06;4999649;28;20206;-65
2023/10/13 09:32:01;;;;;;;22.98;9.85;;;33.40;42.30;;;34.31;26.66;95484.31;4999201;28;20245;-63
2023/10/13 09:34:30;;;;;;;30.25;9.60;;;33.50;41.70;;;34.20;26.78;95483.47;5002968;28;20531;-65
2023/10/13 09:36:59;;;;;;;18.30;9.43;;;33.60;41.60;;;34.12;27.16;95471.19;4998333;28;20237;-61
2023/10/13 09:39:40;;;;;;;16.90;8.15;;;33.50;41.50;;;34.07;26.44;95473.94;4999170;28;20285;-63
2023/10/13 09:42:10;;;;;;;14.48;8.77;;;33.50;41.50;;;33.95;26.45;95466.03;5000322;28;20234;-64
2023/10/13 09:44:40;;;;;;;17.73;8.55;;;33.30;41.40;;;33.77;27.21;95463.84;5001003;28;20226;-63
2023/10/13 09:47:17;;;;;;;18.27;9.20;;;33.20;41.30;;;33.55;27.32;95467.63;5000663;28;20230;-63
2023/10/13 09:49:45;;;;;;;17.55;8.45;;;33.00;41.30;;;33.37;27.16;95471.69;4999198;28;20198;-66
2023/10/13 09:52:19;;;;;;;14.57;8.82;;;32.90;41.80;;;33.24;27.73;95462.09;5002031;28;20226;-62
2023/10/13 09:54:59;;;;;;;18.15;8.52;;;32.70;41.80;;;33.18;27.63;95460.44;4998386;28;20203;-65
2023/10/13 09:57:34;;;;;;;24.20;9.15;;;32.60;41.80;;;33.20;27.37;95455.56;5000588;28;20226;-62
2023/10/13 10:00:26;;;;;;;17.95;7.75;;;32.60;42.10;;;33.39;27.28;95447.69;5001189;28;20276;-64
2023/10/13 10:02:58;;;;;;;13.27;7.95;;;32.70;42.00;;;33.65;27.11;95446.88;5000521;28;20230;-64
2023/10/13 10:05:27;;;;;;;15.52;7.07;;;32.90;41.40;;;33.85;26.44;95438.75;4999635;28;20254;-64
2023/10/13 10:08:24;;;;;;;14.32;7.70;;;33.10;41.30;;;34.07;26.49;95434.91;5000793;28;20209;-65
2023/10/13 10:11:15;;;;;;;25.08;7.65;;;33.30;40.90;;;34.26;26.02;95435.19;5001357;28;20273;-64
2023/10/13 10:13:53;;;;;;;16.85;6.80;;;33.50;40.70;;;34.38;26.35;95437.59;4999496;28;20581;-63
2023/10/13 10:16:22;;;;;;;21.40;7.53;;;33.60;40.20;;;34.51;25.98;95437.00;4999166;28;20268;-62
2023/10/13 10:19:01;;;;;;;9.77;6.80;;;33.70;40.00;;;34.65;25.44;95432.59;5004337;28;20210;-60
2023/10/13 10:21:36;;;;;;;12.23;6.07;;;33.90;39.80;;;34.77;25.26;95434.22;4999427;28;20243;-62
2023/10/13 10:24:14;;;;;;;12.32;6.07;;;34.10;39.40;;;34.90;24.89;95430.88;5000906;28;20202;-62
2023/10/13 10:26:52;;;;;;;11.50;6.18;;;34.10;39.00;;;35.07;24.74;95424.22;5000605;28;20237;-64
2023/10/13 10:29:20;;;;;;;14.02;6.32;;;34.30;38.10;;;35.14;25.27;95420.09;4998255;28;20751;-62
2023/10/13 10:31:47;;;;;;;14.05;6.18;;;34.40;38.20;;;35.19;24.48;95421.97;5001484;28;20218;-64
2023/10/13 10:34:18;;;;;;;11.68;6.03;;;34.40;38.30;;;35.18;25.10;95420.34;4998018;28;20213;-60
2023/10/13 10:36:51;;;;;;;21.50;7.25;;;34.50;37.80;;;35.12;24.54;95422.28;5001514;28;20229;-62
2023/10/13 10:39:19;;;;;;;21.63;6.25;;;34.50;38.10;;;35.01;24.09;95413.34;4998860;28;20203;-63
2023/10/13 10:41:51;;;;;;;19.40;5.80;;;34.30;37.70;;;34.86;25.03;95418.88;5000577;28;20241;-61
2023/10/13 10:44:25;;;;;;;12.60;5.20;;;34.20;37.80;;;34.64;24.71;95411.00;4999646;28;20533;-65
2023/10/13 10:46:57;;;;;;;19.85;6.38;;;34.10;37.60;;;34.43;24.13;95400.16;4999200;28;20226;-63
2023/10/13 10:49:30;;;;;;;9.40;5.28;;;33.90;37.60;;;34.23;24.79;95409.19;5000325;28;20226;-65
2023/10/13 10:52:04;;;;;;;4.43;3.67;;;33.70;37.30;;;34.00;24.33;95401.59;4997714;28;20703;-64
2023/10/13 10:54:32;;;;;;;7.05;4.32;;;33.40;36.80;;;33.72;24.25;95396.44;5001282;28;20207;-64
2023/10/13 10:57:10;;;;;;;8.48;4.85;;;33.20;37.30;;;33.28;24.73;95409.75;4997966;28;20227;-60
2023/10/13 10:59:38;;;;;;;9.98;4.82;;;32.80;37.10;;;32.91;25.29;95413.50;5000432;28;20198;-63
2023/10/13 11:02:08;;;;;;;12.05;5.07;;;32.40;37.60;;;32.82;25.10;95407.72;4998242;28;20254;-61
2023/10/13 11:04:40;;;;;;;6.53;5.20;;;32.20;38.20;;;32.82;25.48;95394.09;4999909;28;20206;-63
2023/10/13 11:07:09;;;;;;;7.88;3.33;;;32.10;38.10;;;32.78;24.96;95390.28;4999749;28;20223;-65
2023/10/13 11:09:45;;;;;;;7.45;4.70;;;32.10;38.00;;;32.64;25.09;95390.78;4999662;28;20202;-62
2023/10/13 11:12:23;;;;;;;4.50;4.10;;;32.00;38.00;;;32.55;24.94;95388.78;5001372;28;20237;-61
2023/10/13 11:15:01;;;;;;;5.95;4.22;;;31.90;37.80;;;32.49;25.23;95380.63;4997660;28;20248;-63
2023/10/13 11:17:39;;;;;;;8.73;3.90;;;31.80;37.70;;;32.45;25.23;95384.94;4999993;28;20648;-62
2023/10/13 11:20:19;;;;;;;8.40;3.38;;;31.80;37.80;;;32.41;24.96;95374.84;5001967;28;20233;-64
2023/10/13 11:22:52;;;;;;;15.50;3.75;;;31.70;37.70;;;32.30;24.78;95377.53;5002564;28;20254;-64
2023/10/13 11:25:29;;;;;;;7.50;3.35;;;31.60;37.80;;;32.24;25.08;95377.75;5000649;28;20198;-61
2023/10/13 11:27:58;;;;;;;5.93;3.28;;;31.50;37.80;;;32.17;24.84;95378.81;4999918;28;20210;-61
2023/10/13 11:30:29;;;;;;;5.22;3.47;;;31.50;37.30;;;32.14;25.14;95367.66;4999078;28;20552;-61
2023/10/13 11:33:05;;;;;;;10.88;2.70;;;31.50;37.50;;;32.01;24.73;95368.91;5000554;28;20585;-65
2023/10/13 11:38:25;;;;;;;5.03;2.70;;;31.20;37.50;;;31.48;25.07;95348.94;4999538;28;20285;-61
2023/10/13 11:44:05;;;;;;;5.72;2.75;;;30.80;37.90;;;31.30;25.67;95358.31;4997215;28;20211;-60
2023/10/13 11:46:55;;;;;;;4.53;2.97;;;30.60;38.00;;;31.23;25.75;95353.09;4998193;28;20233;-63
2023/10/13 11:49:34;;;;;;;10.63;3.00;;;30.60;38.20;;;31.06;25.64;95351.31;4997369;28;20676;-63
2023/10/13 11:52:19;;;;;;;3.13;2.80;;;30.50;38.40;;;30.89;26.04;95354.13;5000054;28;20268;-63
2023/10/13 11:54:48;;;;;;;5.00;2.60;;;30.30;38.30;;;30.75;25.55;95347.44;5002372;28;20197;-65
2023/10/13 11:57:19;;;;;;;7.10;2.83;;;30.20;38.50;;;30.69;25.83;95340.31;5000923;28;20313;-65
2023/10/13 11:59:53;;;;;;;4.97;2.63;;;30.10;38.70;;;30.63;25.83;95339.44;5004127;28;20293;-61
2023/10/13 12:05:12;;;;;;;17.93;3.90;;;29.90;38.90;;;30.49;26.27;95332.75;5000669;28;20197;-64
2023/10/13 12:07:51;;;;;;;7.83;3.07;;;29.80;39.20;;;30.41;26.85;95331.31;5004920;28;20226;-61
2023/10/13 12:10:49;;;;;;;16.47;4.43;;;29.70;39.10;;;30.34;26.45;95323.34;5001760;28;20273;-64
2023/10/13 12:13:17;;;;;;;9.27;3.60;;;29.70;39.30;;;30.31;26.75;95325.75;5001407;28;20289;-61
2023/10/13 12:15:52;;;;;;;7.50;3.40;;;29.60;39.80;;;30.26;26.40;95329.22;5003034;28;20322;-62
2023/10/13 12:18:22;;;;;;;10.90;3.40;;;29.60;39.80;;;30.20;27.41;95324.81;5002438;28;20206;-63
2023/10/13 12:20:49;;;;;;;5.10;2.93;;;29.50;39.90;;;30.06;27.33;95312.69;5001712;28;20222;-61
2023/10/13 12:23:17;;;;;;;8.00;3.57;;;29.40;39.90;;;29.98;26.47;95317.47;5001976;28;20217;-62
2023/10/13 12:25:57;;;;;;;3.70;2.70;;;29.40;39.90;;;29.91;27.27;95316.03;5001887;28;20234;-61